Other Aviation Products
Issued by NWS

Home | Current Version | Previous Version | Text Only | Print | Product List | Glossary On
Versions: 1 2
000
NOAK58 PAWU 160756
OAVAWU
NATIONAL WEATHER SERVICE ALASKA AVIATION WEATHER UNIT
ANCHORAGE ALASKA

TO:    FORENSIC SERVICES MANAGER (W/OS23)
       NATIONAL WEATHER SERVICE
       C/O TELECOMMUNICATIONS GATEWAY
       SILVER SPRING, MD 20910

INFO:  ATTENTION ALASKA REGION - REGIONAL AVIATION METEOROLOGIST - W/AR1X1

ALPHA     N1370H AERONCA SEDAN AR15

BRAVO     N PANC 61.36:07N 150.28:71W  07152017/1600Z


CHARLIE   TERMINATED ATC SERVICE 1551Z. LAST RADAR RETURN 1600Z AT 200`MSL
           1 SOB (FATAL)

DELTA     METAR PANC 151453Z 14009G15KT 10SM BKN050 BKN100 16/11 A3000 RMK
          AO2 SLP160 T01560106 56004=
          METAR PANC 151553Z 15009KT 10SM BKN045 BKN100 16/11 A3000 RMK
          AO2 SLP158 T01560111=
          METAR PANC 151653Z 18009KT 10SM BKN045 BKN100 15/11 A3000 RMK
          AO2 SLP159 T01500111=

ECHO      FTAK31 PANC 151408 AAB
          TAFANC
          TAF AMD
          PANC 151408Z 1514/1618 15008KT P6SM OVC050
          FM152100 26008KT P6SM BKN050=


FOXTROT   UNAVAILABLE


GOLF     FAAK48 PAWU 151216
 COOK INLET AND SUSITNA VLY AB...VALID UNTIL 160000
         ...CLOUDS/WX...
         ***AIRMET MT OBSC***S PABV MTS OBSC BY CLDS/PCPN IMPR...
         FEW030 SCT050 BKN080 TOP 160 LYRS ABV. S PABV OCNL BKN050.
         PAHO S ISOL CIG BLW 010/VIS 5SM -RA BR.
         OTLK VALID 160000-160600...VFR.
         PASSES...LAKE CLARK...MVFR CIG SHRA.
         MERRILL...RAINY...VFR.
         WINDY...VFR OCNL MVFR CIG SHRA.
         PORTAGE...MVFR CIG SHRA.
         ...TURB...
         NIL SIG.
         ...ICE AND FZLVL...
         NIL SIG. FZLVL 090.


HOTEL     UNKNOWN

TRENZ, METEOROLOGIST, AAWU



USA.gov is the U.S. government's official web portal to all federal, state and local government web resources and services.